Time;durP1;ratioP1;P1;durP2;ratioP2;P2;SDS_P1;SDS_P2;PMS_P1;PMS_P2;Temp;Humidity;BMP_temperature;BMP_pressure;BME280_temperature;BME280_humidity;BME280_pressure;Samples;Min_cycle;Max_cycle;Signal;HPM_P1;HPM_P2
2022/04/27 00:00:52;;;;;;;;;;;6.20;99.90;;;4.70;100.00;95818.50;10420424;28;1909;-71
2022/04/27 00:05:56;;;;;;;;;;;6.10;99.90;;;4.58;100.00;95830.00;10422035;28;1922;-70
2022/04/27 00:11:00;;;;;;;;;;;6.00;99.90;;;4.63;100.00;95829.28;10432638;28;1927;-70
2022/04/27 00:16:03;;;;;;;;;;;5.90;99.90;;;4.54;100.00;95820.84;10415352;28;1867;-70
2022/04/27 00:21:06;;;;;;;;;;;5.90;99.90;;;4.55;100.00;95822.47;10418875;28;2067;-69
2022/04/27 00:26:09;;;;;;;;;;;5.90;99.90;;;4.58;100.00;95826.50;10436299;28;2122;-68
2022/04/27 00:31:12;;;;;;;;;;;5.90;99.90;;;4.62;100.00;95806.38;10439197;28;1838;-68
2022/04/27 00:36:16;;;;;;;;;;;5.90;99.90;;;4.66;100.00;95807.53;10417204;28;2059;-69
2022/04/27 00:41:19;;;;;;;;;;;6.00;99.90;;;4.59;100.00;95812.19;10406255;28;2341;-70
2022/04/27 00:46:21;;;;;;;;;;;5.90;99.90;;;4.49;100.00;95811.94;10436936;28;2022;-69
2022/04/27 00:51:24;;;;;;;;;;;5.90;99.90;;;4.52;100.00;95819.50;10438906;28;1955;-69
2022/04/27 00:56:28;;;;;;;;;;;5.90;99.90;;;4.49;100.00;95822.59;10433874;28;1925;-68
2022/04/27 01:01:32;;;;;;;;;;;5.80;99.90;;;4.41;100.00;95826.44;10431212;28;1950;-67
2022/04/27 01:06:36;;;;;;;;;;;5.80;99.90;;;4.42;100.00;95832.56;10420951;28;1918;-67
2022/04/27 01:11:39;;;;;;;;;;;5.80;99.90;;;4.37;100.00;95830.59;10415120;28;1828;-69
2022/04/27 01:16:42;;;;;;;;;;;5.70;99.90;;;4.46;100.00;95817.75;10438264;28;1990;-68
2022/04/27 01:21:46;;;;;;;;;;;5.70;99.90;;;4.53;100.00;95837.88;10414637;28;1926;-68
2022/04/27 01:26:49;;;;;;;;;;;5.80;99.90;;;4.54;100.00;95836.03;10432052;28;1910;-69
2022/04/27 01:31:53;;;;;;;;;;;5.80;99.90;;;4.62;100.00;95838.31;10437393;28;1858;-69
2022/04/27 01:37:59;;;;;;;;;;;5.80;99.90;;;4.85;100.00;95835.63;10424175;28;1964;-69
2022/04/27 01:42:20;;;;;;;;;;;5.90;99.90;;;5.08;100.00;95836.56;10410365;28;1867;-68
2022/04/27 01:47:23;;;;;;;;;;;6.10;99.90;;;5.25;100.00;95841.97;10428083;28;1980;-69
2022/04/27 01:57:48;;;;;;;;;;;6.40;99.90;;;5.45;100.00;95846.84;10432858;28;2156;-70
2022/04/27 02:02:51;;;;;;;;;;;6.50;99.90;;;5.51;100.00;95843.22;10420754;28;1865;-68
2022/04/27 02:07:54;;;;;;;;;;;6.60;99.90;;;5.55;100.00;95841.72;10435896;28;1988;-70
2022/04/27 02:12:57;;;;;;;;;;;6.60;99.90;;;5.56;100.00;95844.13;10405324;28;2047;-70
2022/04/27 02:18:00;;;;;;;;;;;6.60;99.90;;;5.61;100.00;95846.09;10415587;28;1878;-67
2022/04/27 02:23:03;;;;;;;;;;;6.70;99.90;;;5.61;100.00;95843.44;10431339;28;1983;-68
2022/04/27 02:28:07;;;;;;;;;;;6.80;99.90;;;5.57;100.00;95844.94;10435830;28;1840;-69
2022/04/27 02:33:10;;;;;;;;;;;6.60;99.90;;;5.55;100.00;95849.72;10404905;28;1907;-70
2022/04/27 02:38:13;;;;;;;;;;;6.60;99.90;;;5.57;100.00;95850.28;10428241;28;1913;-69
2022/04/27 02:43:16;;;;;;;;;;;6.70;99.90;;;5.62;100.00;95855.69;10411808;28;1995;-70
2022/04/27 02:48:19;;;;;;;;;;;6.70;99.90;;;5.64;100.00;95861.59;10416746;28;1959;-70
2022/04/27 02:53:22;;;;;;;;;;;6.70;99.90;;;5.69;100.00;95859.03;10433207;28;1865;-70
2022/04/27 02:58:25;;;;;;;;;;;6.70;99.90;;;5.73;100.00;95862.84;10438911;28;1979;-69
2022/04/27 03:03:29;;;;;;;;;;;6.80;99.90;;;5.75;100.00;95867.94;10427015;28;2156;-70
2022/04/27 03:08:32;;;;;;;;;;;6.80;99.90;;;5.72;100.00;95874.53;10437611;28;1806;-71
2022/04/27 03:13:38;;;;;;;;;;;6.80;99.90;;;5.75;100.00;95882.06;10423433;28;1940;-69
2022/04/27 03:18:41;;;;;;;;;;;6.80;99.90;;;5.81;100.00;95882.97;10426888;28;1836;-69
2022/04/27 03:23:44;;;;;;;;;;;6.80;99.90;;;5.80;100.00;95889.34;10426902;28;2106;-70
2022/04/27 03:28:48;;;;;;;;;;;6.80;99.90;;;5.83;100.00;95896.88;10422720;28;1906;-69
2022/04/27 03:33:51;;;;;;;;;;;6.90;99.90;;;5.84;100.00;95898.47;10434270;28;1922;-70
2022/04/27 03:38:54;;;;;;;;;;;6.90;99.90;;;5.87;100.00;95893.50;10438309;28;1901;-70
2022/04/27 03:43:57;;;;;;;;;;;6.90;99.90;;;5.73;100.00;95902.84;10436754;28;1887;-70
2022/04/27 03:49:00;;;;;;;;;;;6.90;99.90;;;5.58;100.00;95900.69;10437508;28;1982;-69
2022/04/27 03:54:03;;;;;;;;;;;6.80;99.90;;;5.61;100.00;95912.75;10430109;28;2038;-71
2022/04/27 03:59:06;;;;;;;;;;;6.70;99.90;;;5.53;100.00;95916.59;10438348;28;2052;-70
2022/04/27 04:04:10;;;;;;;;;;;6.70;99.90;;;5.59;100.00;95939.63;10430455;28;1981;-69
2022/04/27 04:09:13;;;;;;;;;;;6.60;99.90;;;5.56;100.00;95940.13;10414728;28;1792;-69
2022/04/27 04:14:16;;;;;;;;;;;6.60;99.90;;;5.51;100.00;95939.22;10416034;28;1830;-69
2022/04/27 04:19:20;;;;;;;;;;;6.60;99.90;;;5.55;100.00;95951.03;10436955;28;1787;-70
2022/04/27 04:24:23;;;;;;;;;;;6.60;99.90;;;5.57;100.00;95955.06;10433027;28;1918;-70
2022/04/27 04:29:31;;;;;;;;;;;6.60;99.90;;;5.65;100.00;95959.22;10412868;28;1877;-69
2022/04/27 04:34:35;;;;;;;;;;;6.60;99.90;;;5.68;100.00;95964.91;10424972;28;1835;-69
2022/04/27 04:39:40;;;;;;;;;;;6.70;99.90;;;5.74;100.00;95976.47;10413911;28;1849;-69
2022/04/27 04:44:43;;;;;;;;;;;6.80;99.90;;;5.83;100.00;95972.38;10432054;28;2030;-69
2022/04/27 04:49:47;;;;;;;;;;;6.90;99.90;;;5.89;100.00;95979.41;10413640;28;1831;-69
2022/04/27 04:54:50;;;;;;;;;;;6.90;99.90;;;5.97;100.00;95986.25;10414954;28;1994;-70
2022/04/27 04:59:53;;;;;;;;;;;7.00;99.90;;;6.17;100.00;95994.66;10438614;28;1855;-70
2022/04/27 05:04:56;;;;;;;;;;;7.10;99.90;;;6.41;100.00;95989.97;10421994;28;1981;-70
2022/04/27 05:09:59;;;;;;;;;;;7.30;99.90;;;6.55;100.00;95995.00;10421973;28;2038;-70
2022/04/27 05:15:02;;;;;;;;;;;7.40;99.90;;;6.71;100.00;95997.66;10434972;28;1791;-68
2022/04/27 05:20:07;;;;;;;;;;;7.60;99.90;;;6.73;100.00;96002.75;10412957;28;2055;-69
2022/04/27 05:25:10;;;;;;;;;;;7.70;99.90;;;6.87;100.00;96006.75;10418408;28;1990;-69
2022/04/27 05:35:39;;;;;;;;;;;7.90;99.90;;;7.18;100.00;96023.22;10427414;28;2041;-71
2022/04/27 05:40:43;;;;;;;;;;;8.10;99.90;;;7.27;100.00;96013.72;10427289;28;1850;-72
2022/04/27 05:45:46;;;;;;;;;;;8.20;99.90;;;7.37;100.00;96021.06;10409040;28;1989;-70
2022/04/27 05:50:50;;;;;;;;;;;8.20;99.90;;;7.74;100.00;96030.09;10407609;28;1970;-71
2022/04/27 05:55:52;;;;;;;;;;;8.30;99.90;;;7.51;100.00;96033.84;10439143;28;1815;-73
2022/04/27 06:00:56;;;;;;;;;;;8.40;99.90;;;7.07;100.00;96046.34;10427119;28;1798;-73
2022/04/27 06:05:59;;;;;;;;;;;8.20;99.90;;;6.92;100.00;96049.56;10419639;28;1922;-73
2022/04/27 06:11:02;;;;;;;;;;;8.00;99.90;;;7.22;100.00;96043.06;10437466;28;1772;-72
2022/04/27 06:16:05;;;;;;;;;;;7.90;99.90;;;7.83;100.00;96042.00;10436038;28;1875;-73
2022/04/27 06:21:08;;;;;;;;;;;8.30;99.90;;;8.43;100.00;96053.66;10420555;28;1888;-73
2022/04/27 06:26:11;;;;;;;;;;;8.90;99.90;;;8.60;100.00;96058.94;10446853;28;1984;-71
2022/04/27 06:31:14;;;;;;;;;;;9.20;99.90;;;8.62;100.00;96062.97;10442661;28;2070;-72
2022/04/27 06:36:17;;;;;;;;;;;9.40;99.90;;;8.62;97.04;96062.97;10425434;28;2044;-71
2022/04/27 06:41:20;;;;;;;;;;;9.50;99.90;;;8.62;100.00;96062.97;10423815;28;1895;-72
2022/04/27 06:46:23;;;;;;;;;;;9.50;99.90;;;9.28;96.71;96069.91;10431999;28;1965;-72
2022/04/27 06:51:27;;;;;;;;;;;9.80;99.90;;;9.43;94.41;96076.22;10424897;28;1811;-72
2022/04/27 06:56:30;;;;;;;;;;;10.20;99.90;;;9.73;89.80;96072.91;10427806;28;1862;-73
2022/04/27 07:01:33;;;;;;;;;;;10.10;99.90;;;9.52;92.23;96068.47;10438174;28;1918;-72
2022/04/27 07:06:36;;;;;;;;;;;10.50;99.90;;;9.00;87.86;96066.50;10434149;28;1906;-73
2022/04/27 07:11:40;;;;;;;;;;;10.30;99.90;;;9.20;88.18;96074.69;10418864;28;1907;-73
2022/04/27 07:16:43;;;;;;;;;;;10.10;99.90;;;9.44;89.82;96071.66;10434933;28;2014;-71
2022/04/27 07:21:47;;;;;;;;;;;10.30;99.90;;;9.76;89.86;96068.88;10419571;28;1831;-73
2022/04/27 07:26:51;;;;;;;;;;;10.60;99.90;;;10.63;83.61;96075.41;10421532;28;1973;-73
2022/04/27 07:31:54;;;;;;;;;;;10.90;99.90;;;11.04;80.01;96080.81;10437625;28;1804;-73
2022/04/27 07:36:58;;;;;;;;;;;11.50;99.90;;;11.95;73.17;96073.69;10435760;28;1888;-74
2022/04/27 07:42:02;;;;;;;;;;;12.20;99.90;;;12.15;73.96;96082.53;10435899;28;1755;-70
2022/04/27 07:47:07;;;;;;;;;;;12.60;99.90;;;11.86;73.01;96090.44;10451105;28;1983;-73
2022/04/27 07:52:10;;;;;;;;;;;12.40;99.90;;;12.44;73.53;96084.53;10449694;28;1964;-73
2022/04/27 07:57:14;;;;;;;;;;;12.80;99.90;;;13.19;68.09;96087.84;10447763;28;1795;-72
2022/04/27 08:02:18;;;;;;;;;;;13.30;99.90;;;13.12;65.06;96094.66;10436495;28;1803;-72
2022/04/27 08:07:22;;;;;;;;;;;13.70;99.90;;;13.95;62.13;96094.44;10457888;28;1973;-71
2022/04/27 08:12:25;;;;;;;;;;;13.90;99.90;;;13.39;62.59;96091.47;10428778;28;1986;-72
2022/04/27 08:17:29;;;;;;;;;;;14.30;99.90;;;13.07;65.45;96092.78;10434271;28;1973;-71
2022/04/27 08:22:32;;;;;;;;;;;14.10;99.90;;;13.16;61.87;96099.19;10447624;28;2053;-71
2022/04/27 08:27:35;;;;;;;;;;;13.90;99.90;;;12.90;65.36;96108.53;10425232;28;1902;-72
2022/04/27 08:32:38;;;;;;;;;;;13.70;99.90;;;12.41;63.36;96109.38;10438518;28;1695;-74
2022/04/27 08:37:41;;;;;;;;;;;13.50;99.90;;;12.74;63.33;96107.84;10457305;28;2102;-73
2022/04/27 08:42:44;;;;;;;;;;;13.50;99.90;;;12.28;65.62;96118.03;10434278;28;2022;-72
2022/04/27 08:47:48;;;;;;;;;;;13.30;99.90;;;11.69;63.62;96124.91;10436402;28;1952;-72
2022/04/27 08:52:51;;;;;;;;;;;13.00;99.90;;;11.92;68.10;96128.13;10425913;28;1839;-72
2022/04/27 08:57:54;;;;;;;;;;;12.60;99.90;;;12.23;64.82;96129.66;10437886;28;1772;-71
2022/04/27 09:02:57;;;;;;;;;;;12.80;99.90;;;11.77;65.66;96137.84;10433727;28;1824;-73
2022/04/27 09:08:01;;;;;;;;;;;12.80;99.90;;;11.77;67.43;96142.38;10430633;28;1980;-74
2022/04/27 09:13:04;;;;;;;;;;;12.80;99.90;;;11.62;65.55;96144.03;10453202;28;1780;-72
2022/04/27 09:23:28;;;;;;;;;;;12.70;99.90;;;11.92;65.51;96147.00;10437111;28;1859;-72
2022/04/27 09:28:31;;;;;;;;;;;12.90;99.90;;;11.89;63.30;96151.81;10432596;28;1918;-73
2022/04/27 09:33:34;;;;;;;;;;;12.90;99.90;;;11.67;63.25;96159.38;10451258;28;1811;-72
2022/04/27 09:38:37;;;;;;;;;;;12.80;99.90;;;11.21;64.98;96154.00;10435924;28;1770;-72
2022/04/27 09:43:42;;;;;;;;;;;12.50;99.90;;;11.01;67.10;96164.75;10439442;28;1905;-73
2022/04/27 09:48:46;;;;;;;;;;;12.20;99.90;;;10.74;68.36;96163.06;10451684;28;1987;-71
2022/04/27 09:53:49;;;;;;;;;;;11.80;99.90;;;10.96;68.60;96159.34;10417408;28;1866;-72
2022/04/27 09:58:52;;;;;;;;;;;11.80;99.90;;;11.01;68.50;96162.06;10440967;28;1899;-72
2022/04/27 10:03:57;;;;;;;;;;;11.90;99.90;;;11.51;67.62;96166.66;10454243;28;1835;-71
2022/04/27 10:09:00;;;;;;;;;;;12.10;99.90;;;10.99;70.22;96169.56;10438984;28;1914;-71
2022/04/27 10:14:04;;;;;;;;;;;12.00;99.90;;;11.59;66.91;96173.41;10434173;28;1933;-72
2022/04/27 10:19:07;;;;;;;;;;;12.30;99.90;;;11.68;63.68;96184.41;10439802;28;1770;-71
2022/04/27 10:24:11;;;;;;;;;;;12.70;99.90;;;12.05;63.06;96165.28;10457826;28;1830;-72
2022/04/27 10:29:15;;;;;;;;;;;12.90;99.90;;;11.73;65.39;96171.78;10454612;28;1910;-72
2022/04/27 10:34:17;;;;;;;;;;;12.80;99.90;;;12.05;63.81;96181.44;10437171;28;1826;-72
2022/04/27 10:39:21;;;;;;;;;;;13.00;99.90;;;11.87;64.77;96186.31;10461122;28;1884;-71
2022/04/27 10:44:25;;;;;;;;;;;12.90;99.90;;;12.05;65.91;96170.66;10461721;28;1863;-73
2022/04/27 10:49:28;;;;;;;;;;;12.80;99.90;;;12.00;65.89;96167.97;10448032;28;1921;-70
2022/04/27 10:54:32;;;;;;;;;;;12.90;99.90;;;12.93;63.32;96176.25;10458488;28;1875;-71
2022/04/27 10:59:35;;;;;;;;;;;13.40;99.90;;;12.62;64.55;96185.59;10421551;28;1943;-71
2022/04/27 11:04:39;;;;;;;;;;;13.50;99.90;;;13.06;62.01;96180.25;10447900;28;1909;-71
2022/04/27 11:09:42;;;;;;;;;;;13.60;99.90;;;12.93;60.61;96188.94;10436312;28;1987;-73
2022/04/27 11:14:45;;;;;;;;;;;13.90;99.90;;;13.87;58.98;96194.25;10441114;28;1898;-72
2022/04/27 11:19:48;;;;;;;;;;;14.30;99.90;;;13.46;58.92;96203.47;10422130;28;1817;-72
2022/04/27 11:24:53;;;;;;;;;;;14.40;99.90;;;12.30;62.44;96200.25;10427224;28;1901;-73
2022/04/27 11:29:56;;;;;;;;;;;13.70;99.90;;;13.32;59.08;96210.59;10438769;28;1981;-71
2022/04/27 11:34:58;;;;;;;;;;;13.70;99.90;;;12.68;62.58;96212.25;10430869;28;1767;-72
2022/04/27 11:40:01;;;;;;;;;;;13.70;99.90;;;12.74;62.32;96204.97;10431762;28;1814;-72
2022/04/27 11:45:04;;;;;;;;;;;13.60;99.90;;;13.47;59.10;96212.38;10439987;28;1809;-70
2022/04/27 11:50:07;;;;;;;;;;;14.00;99.90;;;13.65;58.54;96205.50;10434349;28;1989;-69
2022/04/27 11:55:11;;;;;;;;;;;14.20;99.90;;;13.54;59.03;96212.88;10424087;28;2220;-70
2022/04/27 12:00:14;;;;;;;;;;;14.30;99.90;;;13.85;58.27;96210.75;10435906;28;1884;-70
2022/04/27 12:05:17;;;;;;;;;;;14.40;99.90;;;12.92;61.21;96223.22;10445367;28;1960;-69
2022/04/27 12:10:21;;;;;;;;;;;14.30;99.90;;;12.13;61.97;96210.53;10435277;28;1972;-70
2022/04/27 12:15:28;;;;;;;;;;;13.70;99.90;;;12.69;58.92;96208.47;10419322;28;2095;-71
2022/04/27 12:20:34;;;;;;;;;;;13.50;99.90;;;12.85;58.76;96217.31;10438689;28;1901;-70
2022/04/27 12:25:37;;;;;;;;;;;13.70;99.90;;;13.32;57.59;96204.41;10432277;28;1979;-70
2022/04/27 12:30:40;;;;;;;;;;;13.90;99.90;;;13.49;54.64;96205.63;10445202;28;1901;-69
2022/04/27 12:41:04;;;;;;;;;;;14.40;99.90;;;14.49;51.09;96204.19;10429269;28;1894;-69
2022/04/27 12:46:07;;;;;;;;;;;15.00;99.90;;;14.68;51.07;96198.03;10445657;28;1982;-70
2022/04/27 12:51:11;;;;;;;;;;;15.20;99.90;;;15.54;50.00;96187.91;10415948;28;1885;-70
2022/04/27 12:56:19;;;;;;;;;;;15.90;99.90;;;14.32;51.54;96184.91;10437241;28;2009;-69
2022/04/27 13:01:22;;;;;;;;;;;15.80;99.90;;;13.73;52.26;96183.28;10438566;28;1805;-69
2022/04/27 13:06:25;;;;;;;;;;;15.50;99.90;;;13.65;53.43;96183.91;10422912;28;1913;-69
2022/04/27 13:16:50;;;;;;;;;;;14.70;99.90;;;13.16;55.41;96177.47;10418746;28;1918;-68
2022/04/27 13:21:53;;;;;;;;;;;14.40;99.90;;;13.88;54.45;96169.66;10428395;28;1957;-67
2022/04/27 13:26:57;;;;;;;;;;;14.60;99.90;;;14.28;52.82;96175.72;10424222;28;1959;-69
2022/04/27 13:32:00;;;;;;;;;;;15.00;99.90;;;14.97;48.31;96168.16;10412713;28;1854;-69
2022/04/27 13:37:03;;;;;;;;;;;15.50;99.90;;;14.33;51.39;96181.09;10418645;28;1833;-69
2022/04/27 13:42:06;;;;;;;;;;;15.60;99.90;;;13.58;52.81;96173.41;10408243;28;1814;-69
2022/04/27 13:47:09;;;;;;;;;;;14.80;99.90;;;14.52;50.96;96173.88;10420563;28;1902;-70
2022/04/27 13:52:12;;;;;;;;;;;15.10;99.90;;;14.67;51.26;96167.47;10416456;28;1954;-67
2022/04/27 13:57:16;;;;;;;;;;;15.50;99.90;;;12.87;54.95;96181.97;10425067;28;2185;-69
2022/04/27 14:02:19;;;;;;;;;;;14.70;99.90;;;12.81;55.27;96173.09;10416887;28;1901;-69
2022/04/27 14:07:23;;;;;;;;;;;13.90;99.90;;;14.14;51.71;96166.69;10411681;28;2218;-69
2022/04/27 14:23:09;;;;;;;;;;;14.40;99.90;;;12.76;53.98;96178.50;10413517;28;1722;-69
2022/04/27 14:28:13;;;;;;;;;;;14.20;99.90;;;12.57;54.45;96174.81;10438286;28;1977;-69
2022/04/27 14:33:17;;;;;;;;;;;13.90;99.90;;;13.24;53.74;96170.72;10435695;28;1839;-68
2022/04/27 14:38:20;;;;;;;;;;;14.00;99.90;;;13.22;51.15;96170.97;10419463;28;1805;-68
2022/04/27 14:43:23;;;;;;;;;;;14.30;99.90;;;13.13;51.46;96171.84;10434052;28;1781;-69
2022/04/27 14:48:26;;;;;;;;;;;14.40;99.90;;;13.93;49.81;96168.78;10425944;28;1910;-70
2022/04/27 14:53:29;;;;;;;;;;;14.60;99.90;;;14.44;50.09;96171.78;10423763;28;1847;-69
2022/04/27 14:58:32;;;;;;;;;;;15.10;99.90;;;14.10;51.12;96171.06;10437965;28;1828;-69
2022/04/27 15:03:36;;;;;;;;;;;15.20;99.90;;;13.57;50.96;96171.00;10418582;28;1938;-68
2022/04/27 15:08:39;;;;;;;;;;;15.10;99.90;;;14.53;48.32;96186.28;10412910;28;1913;-69
2022/04/27 15:13:43;;;;;;;;;;;15.30;99.90;;;14.15;50.04;96184.53;10437783;28;1851;-68
2022/04/27 15:18:47;;;;;;;;;;;15.30;99.90;;;13.76;50.13;96175.44;10424315;28;1835;-68
2022/04/27 15:23:50;;;;;;;;;;;15.20;99.90;;;14.43;50.19;96170.16;10435793;28;1851;-68
2022/04/27 15:28:52;;;;;;;;;;;15.30;99.90;;;13.42;53.19;96171.91;10438909;28;1957;-68
2022/04/27 15:33:55;;;;;;;;;;;15.00;99.90;;;13.16;53.15;96171.25;10456551;28;1826;-69
2022/04/27 15:38:58;;;;;;;;;;;14.50;99.90;;;12.93;55.70;96170.06;10452247;28;1772;-70
2022/04/27 15:44:01;;;;;;;;;;;14.20;99.90;;;12.64;55.45;96175.31;10459068;28;1812;-70
2022/04/27 15:49:11;;;;;;;;;;;14.00;99.90;;;12.89;54.06;96180.59;10449533;28;1975;-70
2022/04/27 15:54:14;;;;;;;;;;;14.00;99.90;;;12.86;53.48;96188.44;10446828;28;1816;-70
2022/04/27 15:59:17;;;;;;;;;;;13.90;99.90;;;12.81;53.57;96188.47;10441948;28;1891;-71
2022/04/27 16:04:20;;;;;;;;;;;14.00;99.90;;;12.56;52.96;96200.19;10440686;28;1996;-68
2022/04/27 16:09:24;;;;;;;;;;;13.80;99.90;;;12.45;53.51;96200.19;10449487;28;1922;-67
2022/04/27 16:14:27;;;;;;;;;;;13.70;99.90;;;12.56;54.17;96197.47;10451576;28;1804;-70
2022/04/27 16:19:30;;;;;;;;;;;13.70;99.90;;;12.51;54.85;96197.50;10451061;28;1830;-70
2022/04/27 16:24:33;;;;;;;;;;;13.70;99.90;;;12.39;54.70;96198.59;10450679;28;1761;-71
2022/04/27 16:29:36;;;;;;;;;;;13.70;99.90;;;12.25;54.71;96205.66;10427765;28;1918;-70
2022/04/27 16:34:40;;;;;;;;;;;13.40;99.90;;;12.01;56.57;96210.81;10422052;28;2004;-70
2022/04/27 16:39:43;;;;;;;;;;;13.30;99.90;;;11.99;57.34;96221.06;10415172;28;1862;-70
2022/04/27 16:44:46;;;;;;;;;;;13.20;99.90;;;12.08;58.60;96218.63;10414941;28;1718;-70
2022/04/27 16:49:49;;;;;;;;;;;13.10;99.90;;;12.11;59.40;96208.13;10436003;28;1910;-69
2022/04/27 16:54:52;;;;;;;;;;;13.20;99.90;;;12.23;59.11;96215.09;10405066;28;2262;-69
2022/04/27 17:00:52;;;;;;;;;;;13.30;99.90;;;12.19;57.40;96220.22;10418542;28;1808;-71
2022/04/27 17:05:20;;;;;;;;;;;13.40;99.90;;;11.74;58.98;96232.63;10449148;28;1772;-71
2022/04/27 17:10:23;;;;;;;;;;;13.00;99.90;;;11.60;59.87;96234.25;10443002;28;1938;-70
2022/04/27 17:15:29;;;;;;;;;;;12.80;99.90;;;11.63;60.11;96233.69;10431835;28;1828;-71
2022/04/27 17:20:34;;;;;;;;;;;12.70;99.90;;;11.69;60.82;96239.91;10425734;28;1797;-69
2022/04/27 17:30:57;;;;;;;;;;;12.70;99.90;;;11.63;63.58;96244.47;10428856;28;1915;-69
2022/04/27 17:36:00;;;;;;;;;;;12.70;99.90;;;11.44;64.39;96251.44;10431479;28;1746;-70
2022/04/27 17:41:03;;;;;;;;;;;12.60;99.90;;;11.21;64.03;96255.47;10440459;28;1803;-67
2022/04/27 17:46:06;;;;;;;;;;;12.40;99.90;;;11.08;64.69;96257.56;10426996;28;1823;-69
2022/04/27 17:51:09;;;;;;;;;;;12.30;99.90;;;10.91;66.24;96275.00;10418303;28;1989;-69
2022/04/27 17:56:12;;;;;;;;;;;12.10;99.90;;;10.74;68.40;96275.97;10425636;28;1549;-68
2022/04/27 18:01:15;;;;;;;;;;;12.00;99.90;;;10.65;71.01;96277.56;10403080;28;1670;-68
2022/04/27 18:06:18;;;;;;;;;;;11.90;99.90;;;10.52;72.36;96288.78;10436161;28;1485;-66
2022/04/27 18:11:21;;;;;;;;;;;11.70;99.90;;;10.35;74.51;96288.13;10418517;28;1983;-68
2022/04/27 18:16:24;;;;;;;;;;;11.60;99.90;;;10.24;75.93;96296.16;10434679;28;1422;-68
2022/04/27 18:21:27;;;;;;;;;;;11.50;99.90;;;10.15;76.26;96286.09;10437030;28;1422;-68
2022/04/27 18:26:29;;;;;;;;;;;11.30;99.90;;;9.98;76.78;96296.97;10446437;28;1572;-66
2022/04/27 18:31:33;;;;;;;;;;;11.20;99.90;;;9.88;76.94;96300.41;10437264;28;1910;-67
2022/04/27 18:36:36;;;;;;;;;;;11.10;99.90;;;9.78;77.74;96311.03;10430579;28;1653;-66
2022/04/27 18:41:39;;;;;;;;;;;11.00;99.90;;;9.68;78.52;96317.16;10419647;28;1553;-66
2022/04/27 18:52:02;;;;;;;;;;;10.80;99.90;;;9.46;81.48;96324.44;10430380;28;1926;-67
2022/04/27 18:57:05;;;;;;;;;;;10.70;99.90;;;9.36;82.80;96329.72;10427014;28;1490;-66
2022/04/27 19:02:08;;;;;;;;;;;10.60;99.90;;;9.23;84.22;96335.47;10424568;28;1536;-66
2022/04/27 19:07:11;;;;;;;;;;;10.50;99.90;;;9.19;85.59;96344.00;10430593;28;1574;-67
2022/04/27 19:12:15;;;;;;;;;;;10.40;99.90;;;9.09;86.93;96341.19;10437426;28;1986;-66
2022/04/27 19:17:20;;;;;;;;;;;10.30;99.90;;;9.03;87.80;96347.53;10427879;28;1522;-66
2022/04/27 19:22:23;;;;;;;;;;;10.30;99.90;;;8.90;88.92;96355.97;10441665;28;1601;-68
2022/04/27 19:27:26;;;;;;;;;;;10.20;99.90;;;8.76;90.18;96346.66;10438596;28;1918;-67
2022/04/27 19:32:30;;;;;;;;;;;10.10;99.90;;;8.61;91.50;96345.41;10442430;28;1462;-66
2022/04/27 19:37:34;;;;;;;;;;;10.00;99.90;;;8.49;92.15;96352.72;10434332;28;1476;-66
2022/04/27 19:42:40;;;;;;;;;;;9.90;99.90;;;8.41;93.42;96366.56;10418433;28;1493;-66
2022/04/27 19:47:44;;;;;;;;;;;9.80;99.90;;;8.40;93.52;96362.25;10436269;28;1977;-68
2022/04/27 19:52:54;;;;;;;;;;;9.80;99.90;;;8.51;94.22;96364.00;10419327;28;1573;-66
2022/04/27 19:57:57;;;;;;;;;;;9.70;99.90;;;8.36;95.59;96361.13;10437952;28;1564;-67
2022/04/27 20:03:00;;;;;;;;;;;9.70;99.90;;;8.28;96.54;96365.00;10425570;28;1430;-67
2022/04/27 20:08:04;;;;;;;;;;;9.50;99.90;;;8.11;98.29;96362.31;10436419;28;1910;-65
2022/04/27 20:13:07;;;;;;;;;;;9.50;99.90;;;8.03;99.57;96364.59;10445304;28;1696;-67
2022/04/27 20:18:10;;;;;;;;;;;9.30;99.90;;;7.95;100.00;96365.81;10424424;28;1474;-67
2022/04/27 20:23:13;;;;;;;;;;;9.20;99.90;;;7.89;100.00;96364.09;10428999;28;1646;-67
2022/04/27 20:28:18;;;;;;;;;;;9.20;99.90;;;7.83;100.00;96365.88;10422343;28;1981;-68
2022/04/27 20:33:20;;;;;;;;;;;9.10;99.90;;;7.61;100.00;96366.78;10431237;28;1490;-69
2022/04/27 20:38:29;;;;;;;;;;;9.00;99.90;;;7.60;100.00;96371.31;10433562;28;1471;-69
2022/04/27 20:43:32;;;;;;;;;;;8.90;99.90;;;7.50;100.00;96371.94;10441587;28;1479;-67
2022/04/27 20:48:35;;;;;;;;;;;8.80;99.90;;;7.49;100.00;96370.31;10442779;28;1981;-70
2022/04/27 20:53:39;;;;;;;;;;;8.80;99.90;;;7.33;100.00;96376.44;10424196;28;1772;-66
2022/04/27 20:58:42;;;;;;;;;;;8.70;99.90;;;7.28;100.00;96376.34;10432242;28;1492;-69
2022/04/27 21:03:46;;;;;;;;;;;8.60;99.90;;;7.24;100.00;96376.00;10420706;28;1481;-69
2022/04/27 21:08:49;;;;;;;;;;;8.60;99.90;;;7.24;100.00;96388.56;10417573;28;2005;-68
2022/04/27 21:13:57;;;;;;;;;;;8.60;99.90;;;7.21;100.00;96386.38;10427051;28;1518;-69
2022/04/27 21:19:00;;;;;;;;;;;8.50;99.90;;;7.23;100.00;96381.59;10428749;28;1545;-67
2022/04/27 21:24:03;;;;;;;;;;;8.50;99.90;;;7.15;100.00;96390.78;10429504;28;1480;-68
2022/04/27 21:29:06;;;;;;;;;;;8.40;99.90;;;7.10;100.00;96385.34;10404204;28;2344;-69
2022/04/27 21:34:10;;;;;;;;;;;8.40;99.90;;;7.04;100.00;96383.59;10417210;28;2331;-68
2022/04/27 21:39:16;;;;;;;;;;;8.30;99.90;;;6.94;100.00;96389.56;10414507;28;1836;-69
2022/04/27 21:44:19;;;;;;;;;;;8.20;99.90;;;6.83;100.00;96382.38;10433149;28;1841;-69
2022/04/27 21:49:23;;;;;;;;;;;8.20;99.90;;;6.86;100.00;96381.91;10424997;28;2007;-69
2022/04/27 21:54:25;;;;;;;;;;;8.20;99.90;;;6.75;100.00;96396.09;10408468;28;1982;-68
2022/04/27 21:59:28;;;;;;;;;;;8.20;99.90;;;6.76;100.00;96389.72;10415007;28;2316;-69
2022/04/27 22:04:31;;;;;;;;;;;8.00;99.90;;;6.73;100.00;96395.50;10417829;28;2533;-69
2022/04/27 22:09:37;;;;;;;;;;;8.00;99.90;;;6.72;100.00;96393.88;10427624;28;2077;-69
2022/04/27 22:14:40;;;;;;;;;;;8.00;99.90;;;6.60;100.00;96393.06;10417873;28;2344;-69
2022/04/27 22:19:43;;;;;;;;;;;7.90;99.90;;;6.60;100.00;96401.09;10436032;28;1994;-67
2022/04/27 22:24:47;;;;;;;;;;;7.90;99.90;;;6.55;100.00;96387.63;10428834;28;2591;-66
2022/04/27 22:29:49;;;;;;;;;;;7.80;99.90;;;6.43;100.00;96391.13;10408196;28;1994;-68
2022/04/27 22:34:52;;;;;;;;;;;7.80;99.90;;;6.42;100.00;96394.81;10429198;28;1831;-68
2022/04/27 22:39:55;;;;;;;;;;;7.80;99.90;;;6.38;100.00;96395.53;10407128;28;1841;-68
2022/04/27 22:44:58;;;;;;;;;;;7.80;99.90;;;6.40;100.00;96399.59;10432194;28;2062;-68
2022/04/27 22:50:01;;;;;;;;;;;7.70;99.90;;;6.36;100.00;96398.44;10429727;28;2568;-68
2022/04/27 22:55:04;;;;;;;;;;;7.60;99.90;;;6.29;100.00;96403.06;10420472;28;1982;-67
2022/04/27 23:00:07;;;;;;;;;;;7.50;99.90;;;6.23;100.00;96395.97;10420222;28;1838;-69
2022/04/27 23:05:10;;;;;;;;;;;7.50;99.90;;;6.12;100.00;96394.13;10422590;28;2030;-68
2022/04/27 23:15:35;;;;;;;;;;;7.40;99.90;;;6.05;100.00;96391.56;10431987;28;1895;-68
2022/04/27 23:20:38;;;;;;;;;;;7.50;99.90;;;5.94;100.00;96401.16;10435347;28;1952;-67
2022/04/27 23:25:42;;;;;;;;;;;7.70;99.90;;;5.87;100.00;96395.06;10433898;28;2137;-69
2022/04/27 23:30:45;;;;;;;;;;;6.40;99.90;;;5.83;100.00;96409.09;10432669;28;2074;-69
2022/04/27 23:35:48;;;;;;;;;;;7.10;99.90;;;5.73;100.00;96403.50;10428210;28;1988;-69
2022/04/27 23:40:51;;;;;;;;;;;6.90;99.90;;;5.70;100.00;96407.44;10436491;28;1871;-67
2022/04/27 23:45:55;;;;;;;;;;;6.80;99.90;;;5.68;100.00;96397.00;10431630;28;2031;-68
2022/04/27 23:50:58;;;;;;;;;;;6.90;99.90;;;5.56;100.00;96403.31;10410925;28;1914;-69
2022/04/27 23:56:01;;;;;;;;;;;6.80;99.90;;;5.56;100.00;96398.81;10435977;28;2602;-67
